createdAt,value
2018-02-05T00:00:37.662Z,23.23
2018-02-05T00:03:08.216Z,21.90
2018-02-05T00:05:39.358Z,26.43
2018-02-05T00:08:09.831Z,22.40
2018-02-05T00:10:40.315Z,24.67
2018-02-05T00:13:10.372Z,23.47
2018-02-05T00:15:40.832Z,20.40
2018-02-05T00:18:10.988Z,24.97
2018-02-05T00:20:41.140Z,23.60
2018-02-05T00:23:11.341Z,22.27
2018-02-05T00:25:41.823Z,21.30
2018-02-05T00:28:12.232Z,25.50
2018-02-05T00:30:42.746Z,21.43
2018-02-05T00:33:13.483Z,22.53
2018-02-05T00:35:43.774Z,23.33
2018-02-05T00:38:14.270Z,27.97
2018-02-05T00:40:44.293Z,21.03
2018-02-05T00:43:15.326Z,24.63
2018-02-05T00:45:45.602Z,26.90
2018-02-05T00:48:16.194Z,27.30
2018-02-05T00:50:46.908Z,24.03
2018-02-05T00:53:17.243Z,21.97
2018-02-05T00:55:47.484Z,25.13
2018-02-05T00:58:17.252Z,24.67
2018-02-05T01:00:47.428Z,25.00
2018-02-05T01:03:17.722Z,24.57
2018-02-05T01:05:48.184Z,22.33
2018-02-05T01:08:18.546Z,25.87
2018-02-05T01:10:48.784Z,27.00
2018-02-05T01:13:18.582Z,27.10
2018-02-05T01:15:49.600Z,25.27
2018-02-05T01:18:20.076Z,28.30
2018-02-05T01:20:50.523Z,26.33
2018-02-05T01:23:20.821Z,27.40
2018-02-05T01:25:51.048Z,28.37
2018-02-05T01:28:21.487Z,24.53
2018-02-05T01:30:51.719Z,26.63
2018-02-05T01:33:22.447Z,26.33
2018-02-05T01:35:53.008Z,26.40
2018-02-05T01:38:23.702Z,25.30
2018-02-05T01:40:54.172Z,24.80
2018-02-05T01:43:24.887Z,23.40
2018-02-05T01:45:54.791Z,23.63
2018-02-05T01:48:25.029Z,26.10
2018-02-05T01:50:55.467Z,25.03
2018-02-05T01:53:25.779Z,23.00
2018-02-05T01:55:55.918Z,22.00
2018-02-05T01:58:26.177Z,21.70
2018-02-05T02:00:56.702Z,21.77
2018-02-05T02:03:27.122Z,25.67
2018-02-05T02:05:57.731Z,22.20
2018-02-05T02:08:28.093Z,25.63
2018-02-05T02:10:58.635Z,21.53
2018-02-05T02:13:28.391Z,23.53
2018-02-05T02:15:58.226Z,20.63
2018-02-05T02:18:28.572Z,21.00
2018-02-05T02:20:58.824Z,23.50
2018-02-05T02:23:29.095Z,23.47
2018-02-05T02:25:59.625Z,25.23
2018-02-05T02:28:29.461Z,26.77
2018-02-05T02:31:00.084Z,28.10
2018-02-05T02:33:30.200Z,27.47
2018-02-05T02:36:00.675Z,25.60
2018-02-05T02:38:31.116Z,27.03
2018-02-05T02:41:00.948Z,24.03
2018-02-05T02:43:30.720Z,22.97
2018-02-05T02:46:01.113Z,23.57
2018-02-05T02:48:31.895Z,21.80
2018-02-05T02:51:02.104Z,21.43
2018-02-05T02:53:32.719Z,21.53
2018-02-05T02:56:02.721Z,19.27
2018-02-05T02:58:32.447Z,20.73
2018-02-05T03:01:02.508Z,22.10
2018-02-05T03:03:32.773Z,22.53
2018-02-05T03:06:03.434Z,21.03
2018-02-05T03:08:33.980Z,21.60
2018-02-05T03:11:04.787Z,21.90
2018-02-05T03:13:35.081Z,19.63
2018-02-05T03:16:05.740Z,22.13
2018-02-05T03:18:35.992Z,23.00
2018-02-05T03:21:06.509Z,22.33
2018-02-05T03:23:36.491Z,21.93
2018-02-05T03:26:06.925Z,18.90
2018-02-05T03:28:37.329Z,18.57
2018-02-05T03:31:07.177Z,22.57
2018-02-05T03:33:37.911Z,17.70
2018-02-05T03:36:08.252Z,21.70
2018-02-05T03:38:38.083Z,21.10
2018-02-05T03:41:08.447Z,17.00
2018-02-05T03:43:38.355Z,21.53
2018-02-05T03:46:08.744Z,22.00
2018-02-05T03:48:39.424Z,15.90
2018-02-05T03:51:10.019Z,23.77
2018-02-05T03:53:40.288Z,20.10
2018-02-05T03:56:10.769Z,21.20
2018-02-05T03:58:41.252Z,24.07
2018-02-05T04:01:11.340Z,27.00
2018-02-05T04:03:41.437Z,20.37
2018-02-05T04:06:11.750Z,21.40
2018-02-05T04:08:42.338Z,21.67
2018-02-05T04:11:12.638Z,22.07
2018-02-05T04:13:43.078Z,21.27
2018-02-05T04:16:13.433Z,21.63
2018-02-05T04:18:43.765Z,20.93
2018-02-05T04:21:14.184Z,23.50
2018-02-05T04:23:44.444Z,21.70
2018-02-05T04:26:14.647Z,21.67
2018-02-05T04:28:45.479Z,23.27
2018-02-05T04:31:15.824Z,22.53
2018-02-05T04:33:46.272Z,23.13
2018-02-05T04:36:16.234Z,21.80
2018-02-05T04:38:46.893Z,21.23
2018-02-05T04:41:16.625Z,23.37
2018-02-05T04:43:47.194Z,23.00
2018-02-05T04:46:17.694Z,21.87
2018-02-05T04:48:47.463Z,23.23
2018-02-05T04:51:17.179Z,22.47
2018-02-05T04:53:47.189Z,21.17
2018-02-05T04:56:16.967Z,21.27
2018-02-05T04:58:46.765Z,22.00
2018-02-05T05:01:16.547Z,25.47
2018-02-05T05:03:46.346Z,22.97
2018-02-05T05:06:16.201Z,23.03
2018-02-05T05:08:45.920Z,22.27
2018-02-05T05:11:15.693Z,25.13
2018-02-05T05:13:45.465Z,25.93
2018-02-05T05:16:15.328Z,27.87
2018-02-05T05:18:45.097Z,29.40
2018-02-05T05:21:14.878Z,31.50
2018-02-05T05:23:44.666Z,34.63
2018-02-05T05:26:14.414Z,44.53
2018-02-05T05:28:44.122Z,42.13
2018-02-05T05:31:13.827Z,38.80
2018-02-05T05:33:43.652Z,33.43
2018-02-05T05:36:13.416Z,31.43
2018-02-05T05:38:43.149Z,28.37
2018-02-05T05:41:13.023Z,25.83
2018-02-05T05:43:42.820Z,28.00
2018-02-05T05:46:12.623Z,28.07
2018-02-05T05:48:42.404Z,32.50
2018-02-05T05:51:12.205Z,32.30
2018-02-05T05:53:41.984Z,30.53
2018-02-05T05:56:11.775Z,30.27
2018-02-05T05:58:41.511Z,30.67
2018-02-05T06:01:11.253Z,30.17
2018-02-05T06:03:40.991Z,29.63
2018-02-05T06:06:10.786Z,33.50
2018-02-05T06:08:40.546Z,27.37
2018-02-05T06:11:10.262Z,28.10
2018-02-05T06:13:40.039Z,29.90
2018-02-05T06:16:09.810Z,29.30
2018-02-05T06:18:39.613Z,32.17
2018-02-05T06:21:09.423Z,30.80
2018-02-05T06:23:39.194Z,27.73
2018-02-05T06:26:08.982Z,32.33
2018-02-05T06:28:38.712Z,30.90
2018-02-05T06:31:08.421Z,34.60
2018-02-05T06:33:38.190Z,33.37
2018-02-05T06:36:07.983Z,34.87
2018-02-05T06:38:37.734Z,32.33
2018-02-05T06:41:07.598Z,30.63
2018-02-05T06:43:37.334Z,30.83
2018-02-05T06:46:07.087Z,29.63
2018-02-05T06:48:36.902Z,27.07
2018-02-05T06:51:18.480Z,27.43
2018-02-05T06:53:59.866Z,31.40
2018-02-05T06:56:29.636Z,29.00
2018-02-05T06:58:59.344Z,29.30
2018-02-05T07:01:29.120Z,30.70
2018-02-05T07:03:58.937Z,31.17
2018-02-05T07:06:28.694Z,32.50
2018-02-05T07:08:58.663Z,32.37
2018-02-05T07:11:28.362Z,28.60
2018-02-05T07:13:58.182Z,31.63
2018-02-05T07:16:27.942Z,29.17
2018-02-05T07:18:57.684Z,31.50
2018-02-05T07:21:27.422Z,29.33
2018-02-05T07:23:57.179Z,28.77
2018-02-05T07:26:26.928Z,27.63
2018-02-05T07:28:56.644Z,30.37
2018-02-05T07:31:26.405Z,24.10
2018-02-05T07:33:56.236Z,25.00
2018-02-05T07:36:25.989Z,25.80
2018-02-05T07:38:55.751Z,27.47
2018-02-05T07:41:25.551Z,27.40
2018-02-05T07:43:55.401Z,28.73
2018-02-05T07:46:25.167Z,29.07
2018-02-05T07:48:54.892Z,27.33
2018-02-05T07:51:24.622Z,28.80
2018-02-05T07:53:54.407Z,30.73
2018-02-05T07:56:24.220Z,26.43
2018-02-05T07:58:54.039Z,26.70
2018-02-05T08:01:23.797Z,30.23
2018-02-05T08:03:53.675Z,29.60
2018-02-05T08:06:23.471Z,28.30
2018-02-05T08:08:53.188Z,30.87
2018-02-05T08:11:22.888Z,27.40
2018-02-05T08:13:52.667Z,27.70
2018-02-05T08:16:22.484Z,29.67
2018-02-05T08:18:52.248Z,27.07
2018-02-05T08:21:22.036Z,26.80
2018-02-05T08:23:51.845Z,24.90
2018-02-05T08:26:21.634Z,27.80
2018-02-05T08:28:51.382Z,26.57
2018-02-05T08:31:21.064Z,29.73
2018-02-05T08:33:51.861Z,27.97
2018-02-05T08:36:21.658Z,25.03
2018-02-05T08:38:51.529Z,28.73
2018-02-05T08:41:21.314Z,28.17
2018-02-05T08:43:51.104Z,27.20
2018-02-05T08:46:20.893Z,23.93
2018-02-05T08:48:50.617Z,26.20
2018-02-05T08:51:20.326Z,23.67
2018-02-05T08:53:50.102Z,23.80
2018-02-05T08:56:19.903Z,26.03
2018-02-05T08:58:49.638Z,24.83
2018-02-05T09:01:19.377Z,24.20
2018-02-05T09:03:49.163Z,25.40
2018-02-05T09:06:18.966Z,23.83
2018-02-05T09:08:48.700Z,23.43
2018-02-05T09:11:18.426Z,23.37
2018-02-05T09:13:48.309Z,24.63
2018-02-05T09:16:18.025Z,25.43
2018-02-05T09:18:47.837Z,23.57
2018-02-05T09:21:17.610Z,23.63
2018-02-05T09:23:47.439Z,21.67
2018-02-05T09:26:17.271Z,22.50
2018-02-05T09:28:46.998Z,24.37
2018-02-05T09:31:16.752Z,25.50
2018-02-05T09:33:48.344Z,22.57
2018-02-05T09:36:18.174Z,21.63
2018-02-05T09:38:48.078Z,24.30
2018-02-05T09:41:18.007Z,22.67
2018-02-05T09:43:47.888Z,25.33
2018-02-05T09:46:17.708Z,22.53
2018-02-05T09:48:47.435Z,20.83
2018-02-05T09:51:17.134Z,21.83
2018-02-05T09:53:46.921Z,19.93
2018-02-05T09:56:16.734Z,25.23
2018-02-05T09:58:46.501Z,21.50
2018-02-05T10:01:16.316Z,21.87
2018-02-05T10:03:46.087Z,22.33
2018-02-05T10:06:15.895Z,20.67
2018-02-05T10:08:45.622Z,24.20
2018-02-05T10:11:15.376Z,23.13
2018-02-05T10:13:45.143Z,23.20
2018-02-05T10:16:14.906Z,22.87
2018-02-05T10:18:44.703Z,23.13
2018-02-05T10:21:14.480Z,24.47
2018-02-05T10:23:44.304Z,22.47
2018-02-05T10:26:14.109Z,25.13
2018-02-05T10:28:43.834Z,24.17
2018-02-05T10:31:13.689Z,24.73
2018-02-05T10:33:43.496Z,22.50
2018-02-05T10:36:13.302Z,23.03
2018-02-05T10:38:43.097Z,26.10
2018-02-05T10:41:12.941Z,24.17
2018-02-05T10:43:42.770Z,24.17
2018-02-05T10:46:12.621Z,22.17
2018-02-05T10:48:42.454Z,23.00
2018-02-05T10:51:12.209Z,22.47
2018-02-05T10:53:41.985Z,22.80
2018-02-05T10:56:11.826Z,22.27
2018-02-05T10:58:41.540Z,24.10
2018-02-05T11:01:11.357Z,23.17
2018-02-05T11:03:41.112Z,23.27
2018-02-05T11:06:10.936Z,23.07
2018-02-05T11:08:40.793Z,24.87
2018-02-05T11:11:10.495Z,24.50
2018-02-05T11:13:40.313Z,24.57
2018-02-05T11:16:10.063Z,23.60
2018-02-05T11:18:39.897Z,25.77
2018-02-05T11:21:09.669Z,24.17
2018-02-05T11:23:39.462Z,22.23
2018-02-05T11:26:09.294Z,23.87
2018-02-05T11:28:38.983Z,22.67
2018-02-05T11:31:08.760Z,26.57
2018-02-05T11:33:38.586Z,25.20
2018-02-05T11:36:08.337Z,24.23
2018-02-05T11:38:38.175Z,30.77
2018-02-05T11:41:07.959Z,28.17
2018-02-05T11:43:37.777Z,22.33
2018-02-05T11:46:07.649Z,21.27
2018-02-05T11:48:37.496Z,24.33
2018-02-05T11:51:07.258Z,23.43
2018-02-05T11:53:37.055Z,26.83
2018-02-05T11:56:06.830Z,28.30
2018-02-05T11:58:36.615Z,24.50
2018-02-05T12:01:06.439Z,27.23
2018-02-05T12:03:36.314Z,27.80
2018-02-05T12:06:06.095Z,26.23
2018-02-05T12:08:35.860Z,24.27
2018-02-05T12:11:05.685Z,16.10
2018-02-05T12:13:35.506Z,16.87
2018-02-05T12:16:05.413Z,20.53
2018-02-05T12:18:35.162Z,18.47
2018-02-05T12:21:05.015Z,17.17
2018-02-05T12:23:34.761Z,17.00
2018-02-05T12:26:04.536Z,16.53
2018-02-05T12:28:34.270Z,14.80
2018-02-05T12:31:04.106Z,16.93
2018-02-05T12:33:33.926Z,13.80
2018-02-05T12:36:06.190Z,13.87
2018-02-05T12:38:35.991Z,15.27
2018-02-05T12:41:05.786Z,14.77
2018-02-05T12:43:35.598Z,17.27
2018-02-05T12:46:05.439Z,16.10
2018-02-05T12:48:35.263Z,17.07
2018-02-05T12:51:05.073Z,17.00
2018-02-05T12:53:34.897Z,16.90
2018-02-05T12:56:04.735Z,15.10
2018-02-05T12:58:37.004Z,14.50
2018-02-05T13:01:23.685Z,15.97
2018-02-05T13:03:59.178Z,12.80
2018-02-05T13:06:32.897Z,10.20
2018-02-05T13:09:02.719Z,10.93
2018-02-05T13:11:32.518Z,8.37
2018-02-05T13:14:02.375Z,11.30
2018-02-05T13:16:32.205Z,9.50
2018-02-05T13:19:01.992Z,11.23
2018-02-05T13:21:31.868Z,10.23
2018-02-05T13:24:01.618Z,8.77
2018-02-05T13:26:31.345Z,9.13
2018-02-05T13:29:01.108Z,10.60
2018-02-05T13:31:30.901Z,13.73
2018-02-05T13:34:00.675Z,14.43
2018-02-05T13:36:30.465Z,14.27
2018-02-05T13:39:00.213Z,15.60
2018-02-05T13:41:30.062Z,17.40
2018-02-05T13:43:59.835Z,17.73
2018-02-05T13:46:29.617Z,19.67
2018-02-05T13:48:59.371Z,21.07
2018-02-05T13:51:29.081Z,20.83
2018-02-05T13:53:58.932Z,17.40
2018-02-05T13:56:28.690Z,17.97
2018-02-05T13:58:58.449Z,20.97
2018-02-05T14:01:28.299Z,19.20
2018-02-05T14:03:58.060Z,16.83
2018-02-05T14:06:27.853Z,16.93
2018-02-05T14:08:57.603Z,20.03
2018-02-05T14:11:27.312Z,20.67
2018-02-05T14:13:57.095Z,16.80
2018-02-05T14:16:26.905Z,17.50
2018-02-05T14:19:02.382Z,16.63
2018-02-05T14:21:32.107Z,17.77
2018-02-05T14:24:01.906Z,18.80
2018-02-05T14:26:31.662Z,18.63
2018-02-05T14:29:01.408Z,17.70
2018-02-05T14:31:31.186Z,18.33
2018-02-05T14:34:00.932Z,20.40
2018-02-05T14:36:30.714Z,19.60
2018-02-05T14:39:00.463Z,19.07
2018-02-05T14:41:30.216Z,19.07
2018-02-05T14:44:00.021Z,22.37
2018-02-05T14:46:29.797Z,18.97
2018-02-05T14:48:59.595Z,17.53
2018-02-05T14:51:29.459Z,17.53
2018-02-05T14:53:59.225Z,15.03
2018-02-05T14:56:29.022Z,15.37
2018-02-05T14:58:58.756Z,14.63
2018-02-05T15:01:28.525Z,14.83
2018-02-05T15:03:58.284Z,17.27
2018-02-05T15:06:28.034Z,16.33
2018-02-05T15:08:57.798Z,18.00
2018-02-05T15:11:27.507Z,16.17
2018-02-05T15:13:57.401Z,15.53
2018-02-05T15:16:27.214Z,16.77
2018-02-05T15:18:57.025Z,18.23
2018-02-05T15:21:26.777Z,16.17
2018-02-05T15:23:56.527Z,15.93
2018-02-05T15:26:26.384Z,16.87
2018-02-05T15:28:56.147Z,17.50
2018-02-05T15:31:25.873Z,16.70
2018-02-05T15:33:55.698Z,17.50
2018-02-05T15:36:25.517Z,17.80
2018-02-05T15:38:55.331Z,17.33
2018-02-05T15:41:25.076Z,17.57
2018-02-05T15:43:54.883Z,22.03
2018-02-05T15:46:24.681Z,16.10
2018-02-05T15:48:54.394Z,20.00
2018-02-05T15:51:24.104Z,18.47
2018-02-05T15:53:53.854Z,19.97
2018-02-05T15:56:23.616Z,17.67
2018-02-05T15:58:53.354Z,19.83
2018-02-05T16:01:23.088Z,20.03
2018-02-05T16:03:52.914Z,18.47
2018-02-05T16:06:22.742Z,21.77
2018-02-05T16:08:52.429Z,23.07
2018-02-05T16:11:22.152Z,24.77
2018-02-05T16:13:51.945Z,24.73
2018-02-05T16:16:21.706Z,29.13
2018-02-05T16:18:51.483Z,25.50
2018-02-05T16:21:21.321Z,25.67
2018-02-05T16:23:51.133Z,25.30
2018-02-05T16:26:20.864Z,22.53
2018-02-05T16:28:50.562Z,23.43
2018-02-05T16:31:20.387Z,21.30
2018-02-05T16:33:50.116Z,27.53
2018-02-05T16:36:19.898Z,26.63
2018-02-05T16:38:49.701Z,29.50
2018-02-05T16:41:19.504Z,29.83
2018-02-05T16:43:49.365Z,33.37
2018-02-05T16:46:19.159Z,32.03
2018-02-05T16:48:48.926Z,31.17
2018-02-05T16:51:18.627Z,30.10
2018-02-05T16:53:48.428Z,28.13
2018-02-05T16:56:18.098Z,28.70
2018-02-05T16:58:47.896Z,33.13
2018-02-05T17:01:17.671Z,32.07
2018-02-05T17:03:47.500Z,38.43
2018-02-05T17:06:17.326Z,30.03
2018-02-05T17:08:47.107Z,32.53
2018-02-05T17:11:16.845Z,35.50
2018-02-05T17:13:46.620Z,36.77
2018-02-05T17:16:16.407Z,40.57
2018-02-05T17:18:46.176Z,47.80
2018-02-05T17:21:15.998Z,52.87
2018-02-05T17:23:45.766Z,72.80
2018-02-05T17:26:15.551Z,87.93
2018-02-05T17:28:45.314Z,82.00
2018-02-05T17:31:15.071Z,84.20
2018-02-05T17:33:44.788Z,87.30
2018-02-05T17:36:14.597Z,88.47
2018-02-05T17:38:44.412Z,84.87
2018-02-05T17:41:14.280Z,88.43
2018-02-05T17:43:44.105Z,92.70
2018-02-05T17:46:13.818Z,85.20
2018-02-05T17:48:43.573Z,94.63
2018-02-05T17:51:13.328Z,81.90
2018-02-05T17:53:43.087Z,88.40
2018-02-05T17:56:12.880Z,80.97
2018-02-05T17:58:42.667Z,70.17
2018-02-05T18:01:12.490Z,78.17
2018-02-05T18:03:42.225Z,62.27
2018-02-05T18:06:12.041Z,66.17
2018-02-05T18:08:41.884Z,58.10
2018-02-05T18:11:11.658Z,59.00
2018-02-05T18:13:41.531Z,60.87
2018-02-05T18:16:11.490Z,68.50
2018-02-05T18:18:41.242Z,48.23
2018-02-05T18:21:11.083Z,44.20
2018-02-05T18:23:40.886Z,47.43
2018-02-05T18:26:10.681Z,50.03
2018-02-05T18:28:40.644Z,46.77
2018-02-05T18:31:10.368Z,48.57
2018-02-05T18:33:40.136Z,61.20
2018-02-05T18:36:09.904Z,62.70
2018-02-05T18:38:39.710Z,63.20
2018-02-05T18:41:09.518Z,55.90
2018-02-05T18:43:39.255Z,53.57
2018-02-05T18:46:09.093Z,45.30
2018-02-05T18:48:38.924Z,43.87
2018-02-05T18:51:08.687Z,37.37
2018-02-05T18:53:38.644Z,38.47
2018-02-05T18:56:08.397Z,39.50
2018-02-05T18:58:38.273Z,38.50
2018-02-05T19:01:08.068Z,40.97
2018-02-05T19:03:37.889Z,39.17
2018-02-05T19:06:07.652Z,35.97
2018-02-05T19:08:37.498Z,37.03
2018-02-05T19:11:07.188Z,34.03
2018-02-05T19:13:36.981Z,33.47
2018-02-05T19:16:06.779Z,30.93
2018-02-05T19:18:36.676Z,31.40
2018-02-05T19:21:06.450Z,27.73
2018-02-05T19:23:36.260Z,26.77
2018-02-05T19:26:06.101Z,28.60
2018-02-05T19:28:35.945Z,31.43
2018-02-05T19:31:05.694Z,35.10
2018-02-05T19:33:35.462Z,32.43
2018-02-05T19:36:05.272Z,29.30
2018-02-05T19:38:35.115Z,34.73
2018-02-05T19:41:04.987Z,31.33
2018-02-05T19:43:34.902Z,30.23
2018-02-05T19:46:04.739Z,25.97
2018-02-05T19:48:34.557Z,28.67
2018-02-05T19:51:04.306Z,28.17
2018-02-05T19:53:34.137Z,29.63
2018-02-05T19:56:03.954Z,29.03
2018-02-05T19:58:33.738Z,26.70
2018-02-05T20:01:03.560Z,31.77
2018-02-05T20:03:33.475Z,27.73
2018-02-05T20:06:03.409Z,31.83
2018-02-05T20:08:33.247Z,30.53
2018-02-05T20:11:03.027Z,27.53
2018-02-05T20:13:32.782Z,30.53
2018-02-05T20:16:02.549Z,31.77
2018-02-05T20:18:32.358Z,28.60
2018-02-05T20:21:02.207Z,30.83
2018-02-05T20:23:32.114Z,29.10
2018-02-05T20:26:01.957Z,31.27
2018-02-05T20:28:31.840Z,32.47
2018-02-05T20:31:01.581Z,31.80
2018-02-05T20:33:31.368Z,30.70
2018-02-05T20:36:01.148Z,28.23
2018-02-05T20:38:31.053Z,30.43
2018-02-05T20:41:01.066Z,31.33
2018-02-05T20:43:30.988Z,32.43
2018-02-05T20:46:00.787Z,32.43
2018-02-05T20:48:30.588Z,34.03
2018-02-05T20:51:00.421Z,34.40
2018-02-05T20:53:30.269Z,36.47
2018-02-05T20:56:00.089Z,34.13
2018-02-05T20:58:29.872Z,35.87
2018-02-05T21:00:59.594Z,32.63
2018-02-05T21:03:29.393Z,35.60
2018-02-05T21:05:59.198Z,34.43
2018-02-05T21:08:29.005Z,34.03
2018-02-05T21:10:58.732Z,31.87
2018-02-05T21:13:28.502Z,27.60
2018-02-05T21:15:58.259Z,30.10
2018-02-05T21:18:28.050Z,29.67
2018-02-05T21:20:57.792Z,27.03
2018-02-05T21:23:27.534Z,28.57
2018-02-05T21:25:57.318Z,28.43
2018-02-05T21:28:27.089Z,24.67
2018-02-05T21:30:56.822Z,26.70
2018-02-05T21:33:26.642Z,25.00
2018-02-05T21:35:56.378Z,26.50
2018-02-05T21:38:26.169Z,28.27
2018-02-05T21:40:55.937Z,28.20
2018-02-05T21:43:25.705Z,26.37
2018-02-05T21:45:55.494Z,26.93
2018-02-05T21:48:25.359Z,28.37
2018-02-05T21:50:55.075Z,27.23
2018-02-05T21:53:24.905Z,26.80
2018-02-05T21:55:54.648Z,29.03
2018-02-05T21:58:24.418Z,26.87
2018-02-05T22:00:54.139Z,27.83
2018-02-05T22:03:23.922Z,25.00
2018-02-05T22:05:53.698Z,27.80
2018-02-05T22:08:23.584Z,31.87
2018-02-05T22:10:53.389Z,28.60
2018-02-05T22:13:23.148Z,31.40
2018-02-05T22:15:52.942Z,31.80
2018-02-05T22:18:22.751Z,30.33
2018-02-05T22:20:52.536Z,30.50
2018-02-05T22:23:22.348Z,29.40
2018-02-05T22:25:52.137Z,29.13
2018-02-05T22:28:21.929Z,33.30
2018-02-05T22:30:51.673Z,30.00
2018-02-05T22:33:21.509Z,29.87
2018-02-05T22:35:51.331Z,30.47
2018-02-05T22:38:21.146Z,27.83
2018-02-05T22:40:50.917Z,27.57
2018-02-05T22:43:20.730Z,31.37
2018-02-05T22:45:50.509Z,30.00
2018-02-05T22:48:20.291Z,29.97
2018-02-05T22:50:50.011Z,31.33
2018-02-05T22:53:19.707Z,29.97
2018-02-05T22:55:49.478Z,28.93
2018-02-05T22:58:19.253Z,32.00
2018-02-05T23:00:48.961Z,30.77
2018-02-05T23:03:18.734Z,31.40
2018-02-05T23:05:48.471Z,34.40
2018-02-05T23:08:18.229Z,35.30
2018-02-05T23:10:47.997Z,36.37
2018-02-05T23:13:17.787Z,34.37
2018-02-05T23:15:47.570Z,37.10
2018-02-05T23:18:17.321Z,39.10
2018-02-05T23:20:47.083Z,44.50
2018-02-05T23:23:16.851Z,41.30
2018-02-05T23:25:46.648Z,43.77
2018-02-05T23:28:16.410Z,42.90
2018-02-05T23:30:46.113Z,47.67
2018-02-05T23:33:15.837Z,58.77
2018-02-05T23:35:45.649Z,52.13
2018-02-05T23:38:15.477Z,52.00
2018-02-05T23:40:45.280Z,51.20
2018-02-05T23:43:15.080Z,50.60
2018-02-05T23:45:44.822Z,57.67
2018-02-05T23:48:14.623Z,51.43
2018-02-05T23:50:44.322Z,50.67
2018-02-05T23:53:14.059Z,47.43
2018-02-05T23:55:43.868Z,49.23
2018-02-05T23:58:13.678Z,57.00
